Maran Poseidon — SVAV3 — position and weather

sailwx.info

Track history (hours):
 
Tides and Currents Weather Stations Pressure Air Temp Water Temp Dewpoint Dewpoint Depression Visibility Wind Speed Wind Dir Waves Ship Positions

Maran Poseidon

Last reported at 2015-Aug-17 10:24 UTC. Time now 2015-Sep-01 22:26 UTC.
Position N 30°31' W 117°08'.
Warning: this ship's position is 15 days out of date.

Length 274 m; draft 9.5 m.

Type: Tanker. MMSI: 240959000.

Date/timePositionNaut miles runAvg speedWind from/ knotsBaromVisibWave heightAir tempDewpointWater temp
2015-Aug-17 10:24N 30°31' W 117°08'1010.4
2015-Aug-17 09:28N 30°41' W 117°11'3110.5
2015-Aug-17 06:33N 31°10' W 117°21'1010.3
2015-Aug-17 05:33N 31°20' W 117°25'12 9.8
2015-Aug-17 04:21N 31°31' W 117°27'810.0
2015-Aug-17 03:33N 31°39' W 117°30'10 9.9
2015-Aug-17 02:33N 31°49' W 117°33'10 9.9
2015-Aug-17 01:33N 31°58' W 117°36'1010.3
2015-Aug-17 00:33N 32°08' W 117°39'1110.7
2015-Aug-16 23:33N 32°18' W 117°43'1110.6
2015-Aug-16 22:33N 32°29' W 117°46'1010.3
2015-Aug-16 21:33N 32°38' W 117°50'10 9.9
2015-Aug-16 20:33N 32°48' W 117°53'9 9.5
2015-Aug-16 19:33N 32°57' W 117°57'10 9.6
2015-Aug-16 18:33N 33°06' W 118°00'10 9.9
2015-Aug-16 17:33N 33°15' W 118°05'1010.1
2015-Aug-16 16:33N 33°25' W 118°09'1010.2
2015-Aug-16 15:33N 33°34' W 118°13'10 9.5
2015-Aug-16 14:33N 33°44' W 118°12'1 0.7
2015-Aug-16 13:33N 33°44' W 118°13'0 0.0
2015-Aug-16 12:33N 33°43' W 118°13'0 0.0
2015-Aug-16 11:33N 33°44' W 118°13'0 0.0
2015-Aug-16 10:33N 33°44' W 118°13'0 0.0
2015-Aug-16 09:33N 33°44' W 118°13'0 0.0
2015-Aug-16 08:33N 33°44' W 118°13'0 0.0
2015-Aug-16 07:33N 33°44' W 118°13'0 0.0
2015-Aug-16 06:33N 33°44' W 118°13'0 0.0
2015-Aug-16 05:33N 33°44' W 118°13'0 0.1
2015-Aug-16 04:33N 33°44' W 118°13'0 0.0
2015-Aug-16 03:33N 33°44' W 118°13'0 0.0
2015-Aug-16 02:33N 33°44' W 118°13'0 0.0
2015-Aug-16 01:33N 33°44' W 118°13'0 0.0
2015-Aug-16 00:33N 33°44' W 118°13'0 0.0
2015-Aug-15 23:33N 33°44' W 118°13'0 0.0
2015-Aug-15 22:33N 33°44' W 118°13'0 0.0
2015-Aug-15 21:33N 33°44' W 118°13'0 0.0
2015-Aug-15 20:33N 33°44' W 118°13'0 0.0
2015-Aug-15 19:33N 33°44' W 118°13'0 0.1
2015-Aug-15 18:33N 33°44' W 118°13'0 0.0
2015-Aug-15 17:33N 33°44' W 118°13'0 0.1
2015-Aug-15 16:33N 33°44' W 118°13'0 0.0
2015-Aug-15 15:33N 33°44' W 118°13'0 0.1
2015-Aug-15 14:33N 33°44' W 118°13'0 0.0
2015-Aug-15 13:33N 33°44' W 118°13'0 0.0
2015-Aug-15 12:33N 33°44' W 118°13'0 0.0
2015-Aug-15 11:33N 33°44' W 118°13'0 0.0
2015-Aug-15 10:33N 33°44' W 118°13'0 0.0
2015-Aug-15 09:33N 33°44' W 118°13'0 0.0
2015-Aug-15 08:33N 33°44' W 118°13'0 0.1
2015-Aug-15 07:33N 33°44' W 118°13'0 0.1
2015-Aug-15 06:33N 33°44' W 118°13'0 0.0
2015-Aug-15 05:33N 33°44' W 118°13'1 1.4
2015-Aug-15 04:33N 33°45' W 118°13'0 0.4
2015-Aug-15 03:31N 33°45' W 118°13'0 0.0
2015-Aug-15 02:31N 33°45' W 118°13'0 0.0
2015-Aug-15 01:31N 33°45' W 118°13'0 0.0
2015-Aug-15 00:31N 33°45' W 118°13'0 0.0
2015-Aug-14 23:31N 33°45' W 118°13'0 0.0
2015-Aug-14 22:31N 33°45' W 118°13'0 0.0
2015-Aug-14 21:31N 33°45' W 118°13'0 0.0
2015-Aug-14 20:28N 33°45' W 118°13'0 0.0
2015-Aug-14 19:31N 33°45' W 118°13'0 0.0
2015-Aug-14 18:31N 33°45' W 118°13'0 0.0
2015-Aug-14 17:31N 33°45' W 118°13'0 0.0
2015-Aug-14 16:31N 33°45' W 118°13'0 0.0
2015-Aug-14 15:31N 33°45' W 118°13'0 0.0
2015-Aug-14 14:31N 33°45' W 118°13'0 0.0
2015-Aug-14 13:31N 33°45' W 118°13'0 0.0
2015-Aug-14 12:31N 33°45' W 118°13'0 0.0
2015-Aug-14 11:31N 33°45' W 118°13'0 0.0
2015-Aug-14 10:31N 33°45' W 118°13'0 0.0
2015-Aug-14 09:31N 33°45' W 118°13'0 0.0
2015-Aug-14 08:31N 33°45' W 118°13'0 0.0
2015-Aug-14 07:25N 33°45' W 118°13'0 0.0
2015-Aug-14 06:31N 33°45' W 118°13'0 0.0
2015-Aug-14 05:31N 33°45' W 118°13'0 0.0
2015-Aug-14 04:31N 33°45' W 118°13'0 0.0
2015-Aug-14 03:31N 33°45' W 118°13'0 0.0
2015-Aug-14 02:31N 33°45' W 118°13'0 0.0
2015-Aug-14 01:31N 33°45' W 118°13'0 0.0
2015-Aug-14 00:31N 33°45' W 118°13'0 0.0
2015-Aug-13 23:31N 33°45' W 118°13'0 0.0
2015-Aug-13 22:28N 33°45' W 118°13'0 0.0
2015-Aug-13 21:31N 33°45' W 118°13'0 0.0
2015-Aug-13 20:31N 33°45' W 118°13'0 0.0
2015-Aug-13 19:31N 33°45' W 118°13'0 0.2
2015-Aug-13 18:34N 33°45' W 118°13'3 3.2
2015-Aug-13 17:33N 33°44' W 118°09'0 0.1
2015-Aug-13 16:33N 33°44' W 118°10'0 0.1
2015-Aug-13 15:33N 33°44' W 118°10'0 0.1
2015-Aug-13 14:33N 33°44' W 118°09'0 0.1
2015-Aug-13 13:33N 33°44' W 118°09'0 0.1
2015-Aug-13 12:33N 33°44' W 118°09'0 0.0
2015-Aug-13 11:33N 33°44' W 118°09'0 0.0
2015-Aug-13 10:33N 33°44' W 118°09'0 0.0
2015-Aug-13 09:33N 33°44' W 118°09'0 0.0
2015-Aug-13 08:33N 33°44' W 118°09'0 0.0
2015-Aug-13 07:33N 33°44' W 118°09'0 0.1
2015-Aug-13 06:33N 33°44' W 118°09'0 0.0
2015-Aug-13 05:33N 33°44' W 118°09'0 0.1
2015-Aug-13 04:33N 33°44' W 118°09'0 0.0
2015-Aug-13 03:33N 33°44' W 118°09'0 0.1
2015-Aug-13 02:33N 33°44' W 118°09'0 0.0
2015-Aug-13 01:33N 33°44' W 118°09'0 0.0
2015-Aug-13 00:33N 33°44' W 118°09'0 0.0
2015-Aug-12 23:33N 33°44' W 118°09'0 0.0
2015-Aug-12 22:33N 33°44' W 118°09'0 0.0
2015-Aug-12 21:33N 33°44' W 118°09'0 0.0
2015-Aug-12 20:33N 33°44' W 118°09'0 0.1
2015-Aug-12 19:33N 33°44' W 118°09'0 0.1
2015-Aug-12 18:33N 33°44' W 118°09'0 0.1
2015-Aug-12 17:33N 33°44' W 118°09'0 0.1
2015-Aug-12 16:33N 33°44' W 118°09'0 0.0
2015-Aug-12 15:33N 33°44' W 118°09'0 0.1
2015-Aug-12 14:33N 33°44' W 118°09'0 0.0
2015-Aug-12 13:33N 33°44' W 118°09'0 0.0
2015-Aug-12 12:33N 33°44' W 118°09'0 0.1
2015-Aug-12 11:33N 33°44' W 118°09'0 0.0
2015-Aug-12 10:33N 33°44' W 118°09'0 0.1
2015-Aug-12 09:33N 33°44' W 118°09'0 0.0
2015-Aug-12 08:33N 33°44' W 118°09'0 0.0
2015-Aug-12 07:33N 33°44' W 118°09'0 0.0
2015-Aug-12 06:33N 33°44' W 118°09'0 0.1
2015-Aug-12 05:33N 33°44' W 118°09'0 0.0
2015-Aug-12 04:33N 33°44' W 118°09'0 0.0
2015-Aug-12 03:33N 33°44' W 118°09'0 0.0
2015-Aug-12 02:33N 33°44' W 118°09'0 0.0
2015-Aug-12 01:30N 33°44' W 118°09'0 0.0
2015-Aug-12 00:33N 33°44' W 118°09'0 0.0
2015-Aug-11 23:33N 33°44' W 118°09'0 0.0
2015-Aug-11 22:33N 33°44' W 118°09'0 0.0
2015-Aug-11 21:33N 33°44' W 118°09'0 0.1
2015-Aug-11 20:33N 33°44' W 118°09'0 0.0
2015-Aug-11 19:33N 33°44' W 118°09'0 0.1
2015-Aug-11 18:33N 33°44' W 118°09'0 0.1
2015-Aug-11 17:33N 33°44' W 118°10'0 0.1
2015-Aug-11 16:33N 33°44' W 118°09'0 0.1
2015-Aug-11 15:30N 33°44' W 118°09'0 0.1
2015-Aug-11 14:33N 33°44' W 118°09'0 0.0
2015-Aug-11 13:33N 33°44' W 118°09'0 0.1
2015-Aug-11 12:33N 33°44' W 118°09'0 0.0
2015-Aug-11 11:18N 33°44' W 118°09'0 0.1
2015-Aug-11 10:33N 33°44' W 118°09'0 0.0
2015-Aug-11 09:33N 33°44' W 118°09'0 0.0
2015-Aug-11 08:33N 33°44' W 118°09'0 0.0
2015-Aug-11 07:33N 33°44' W 118°09'0 0.0
2015-Aug-11 06:33N 33°44' W 118°09'0 0.0
2015-Aug-11 05:30N 33°44' W 118°09'0 0.0
2015-Aug-11 04:30N 33°44' W 118°09'0 0.0
2015-Aug-11 03:33N 33°44' W 118°09'0 0.0
2015-Aug-11 02:33N 33°44' W 118°09'0 0.0
2015-Aug-11 01:30N 33°44' W 118°09'0 0.0
2015-Aug-11 00:33N 33°44' W 118°09'0 0.0
2015-Aug-10 23:33N 33°44' W 118°09'0 0.0
2015-Aug-10 22:33N 33°44' W 118°09'0 0.0
2015-Aug-10 21:33N 33°44' W 118°09'0 0.0
2015-Aug-10 20:33N 33°44' W 118°09'0 0.0
2015-Aug-10 19:33N 33°44' W 118°09'0 0.1
2015-Aug-10 18:33N 33°44' W 118°09'0 0.2
2015-Aug-10 17:33N 33°44' W 118°10'0 0.1
2015-Aug-10 16:33N 33°44' W 118°10'0 0.1
2015-Aug-10 15:33N 33°44' W 118°09'0 0.1
2015-Aug-10 14:30N 33°44' W 118°09'0 0.1
2015-Aug-10 13:33N 33°44' W 118°09'0 0.0
2015-Aug-10 12:33N 33°44' W 118°09'0 0.0
2015-Aug-10 11:33N 33°44' W 118°09'0 0.0
2015-Aug-10 10:33N 33°44' W 118°09'0 0.0
2015-Aug-10 09:12N 33°44' W 118°09'0 0.0
2015-Aug-10 08:33N 33°44' W 118°09'0 0.0
2015-Aug-10 07:33N 33°44' W 118°09'0 0.0
2015-Aug-10 06:21N 33°44' W 118°09'0 0.0
2015-Aug-10 05:33N 33°44' W 118°09'0 0.0
2015-Aug-10 04:33N 33°44' W 118°09'0 0.0
2015-Aug-10 03:33N 33°44' W 118°09'0 0.0
2015-Aug-10 02:33N 33°44' W 118°09'0 0.0
2015-Aug-10 01:33N 33°44' W 118°09'0 0.0
2015-Aug-10 00:30N 33°44' W 118°09'0 0.0
2015-Aug-09 23:33N 33°44' W 118°09'0 0.4
2015-Aug-09 22:33N 33°44' W 118°10'3 3.2
2015-Aug-09 21:33N 33°45' W 118°13'0 0.0
2015-Aug-09 20:33N 33°45' W 118°13'0 0.0
2015-Aug-09 19:33N 33°45' W 118°13'0 0.0
2015-Aug-09 18:33N 33°45' W 118°13'0 0.0
2015-Aug-09 17:33N 33°45' W 118°13'0 0.0
2015-Aug-09 16:33N 33°45' W 118°13'0 0.0
2015-Aug-09 15:33N 33°45' W 118°13'0 0.0
2015-Aug-09 14:33N 33°45' W 118°13'0 0.0
2015-Aug-09 13:33N 33°45' W 118°13'0 0.0
2015-Aug-09 12:33N 33°45' W 118°13'0 0.0
2015-Aug-09 11:33N 33°45' W 118°13'0 0.0
2015-Aug-09 10:33N 33°45' W 118°13'0 0.0
2015-Aug-09 09:33N 33°45' W 118°13'0 0.0
2015-Aug-09 08:33N 33°45' W 118°13'0 0.0
2015-Aug-09 07:33N 33°45' W 118°13'0 0.0
2015-Aug-09 06:33N 33°45' W 118°13'0 0.0
2015-Aug-09 04:33N 33°45' W 118°13'0 0.0
2015-Aug-09 03:33N 33°45' W 118°13'3 3.2
2015-Aug-09 02:33N 33°43' W 118°11'2 1.7
2015-Aug-09 01:31N 33°42' W 118°09'0 0.0
2015-Aug-09 00:28N 33°42' W 118°09'0 0.0
2015-Aug-08 23:28N 33°42' W 118°09'0 0.0
2015-Aug-08 21:31N 33°42' W 118°09'0 0.1
2015-Aug-08 20:13N 33°42' W 118°09'0 0.1
2015-Aug-08 18:10N 33°42' W 118°09'0 0.0
2015-Aug-08 17:22N 33°42' W 118°09'0 0.1
2015-Aug-08 16:31N 33°42' W 118°09'0 0.0
2015-Aug-08 15:16N 33°42' W 118°09'0 0.1
2015-Aug-08 14:16N 33°42' W 118°09'0 0.1
2015-Aug-08 13:31N 33°42' W 118°09'0 0.0
2015-Aug-08 12:19N 33°42' W 118°09'0 0.0
2015-Aug-08 11:25N 33°42' W 118°09'0 0.0
2015-Aug-08 10:07N 33°42' W 118°09'0 0.0
2015-Aug-08 09:07N 33°42' W 118°09'0 0.0
2015-Aug-08 07:10N 33°42' W 118°09'0 0.1
2015-Aug-08 06:28N 33°42' W 118°09'0 0.1
2015-Aug-08 05:25N 33°42' W 118°09'0 0.0
2015-Aug-08 04:22N 33°42' W 118°09'0 0.1
2015-Aug-08 03:28N 33°42' W 118°09'0 0.0
2015-Aug-08 02:28N 33°42' W 118°09'0 0.1
2015-Aug-08 01:31N 33°42' W 118°09'0 0.0
2015-Aug-08 00:31N 33°42' W 118°09'0 0.0
2015-Aug-07 23:31N 33°42' W 118°09'0 0.0
2015-Aug-07 22:31N 33°42' W 118°09'0 0.1
2015-Aug-07 21:31N 33°42' W 118°09'0 0.0
2015-Aug-07 20:31N 33°42' W 118°09'0 0.2
2015-Aug-07 19:33N 33°42' W 118°09'0 0.1
2015-Aug-07 18:27N 33°42' W 118°09'0 0.0
2015-Aug-07 17:33N 33°42' W 118°09'0 0.0
2015-Aug-07 16:33N 33°42' W 118°09'0 0.1
2015-Aug-07 15:33N 33°42' W 118°09'0 0.1
2015-Aug-07 14:33N 33°42' W 118°09'0 0.0
2015-Aug-07 13:33N 33°42' W 118°09'0 0.0
2015-Aug-07 12:27N 33°42' W 118°09'0 0.0
2015-Aug-07 11:33N 33°42' W 118°09'0 0.0
2015-Aug-07 10:27N 33°42' W 118°09'  
Track history (hours):
 
Tides and Currents Weather Stations Pressure Air Temp Water Temp Dewpoint Dewpoint Depression Visibility Wind Speed Wind Dir Waves Ship Positions

Maran Poseidon

Last reported at 2015-Aug-17 10:24 UTC. Time now 2015-Sep-01 22:26 UTC.
Position N 30°31' W 117°08'.
Warning: this ship's position is 15 days out of date.

Length 274 m; draft 9.5 m.

Type: Tanker. MMSI: 240959000.

Date/timePositionNaut miles runAvg speedWind from/ knotsBaromVisibWave heightAir tempDewpointWater temp
2015-Aug-17 10:24N 30°31' W 117°08'1010.4
2015-Aug-17 09:28N 30°41' W 117°11'3110.5
2015-Aug-17 06:33N 31°10' W 117°21'1010.3
2015-Aug-17 05:33N 31°20' W 117°25'12 9.8
2015-Aug-17 04:21N 31°31' W 117°27'810.0
2015-Aug-17 03:33N 31°39' W 117°30'10 9.9
2015-Aug-17 02:33N 31°49' W 117°33'10 9.9
2015-Aug-17 01:33N 31°58' W 117°36'1010.3
2015-Aug-17 00:33N 32°08' W 117°39'1110.7
2015-Aug-16 23:33N 32°18' W 117°43'1110.6
2015-Aug-16 22:33N 32°29' W 117°46'1010.3
2015-Aug-16 21:33N 32°38' W 117°50'10 9.9
2015-Aug-16 20:33N 32°48' W 117°53'9 9.5
2015-Aug-16 19:33N 32°57' W 117°57'10 9.6
2015-Aug-16 18:33N 33°06' W 118°00'10 9.9
2015-Aug-16 17:33N 33°15' W 118°05'1010.1
2015-Aug-16 16:33N 33°25' W 118°09'1010.2
2015-Aug-16 15:33N 33°34' W 118°13'10 9.5
2015-Aug-16 14:33N 33°44' W 118°12'1 0.7
2015-Aug-16 13:33N 33°44' W 118°13'0 0.0
2015-Aug-16 12:33N 33°43' W 118°13'0 0.0
2015-Aug-16 11:33N 33°44' W 118°13'0 0.0
2015-Aug-16 10:33N 33°44' W 118°13'0 0.0
2015-Aug-16 09:33N 33°44' W 118°13'0 0.0
2015-Aug-16 08:33N 33°44' W 118°13'0 0.0
2015-Aug-16 07:33N 33°44' W 118°13'0 0.0
2015-Aug-16 06:33N 33°44' W 118°13'0 0.0
2015-Aug-16 05:33N 33°44' W 118°13'0 0.1
2015-Aug-16 04:33N 33°44' W 118°13'0 0.0
2015-Aug-16 03:33N 33°44' W 118°13'0 0.0
2015-Aug-16 02:33N 33°44' W 118°13'0 0.0
2015-Aug-16 01:33N 33°44' W 118°13'0 0.0
2015-Aug-16 00:33N 33°44' W 118°13'0 0.0
2015-Aug-15 23:33N 33°44' W 118°13'0 0.0
2015-Aug-15 22:33N 33°44' W 118°13'0 0.0
2015-Aug-15 21:33N 33°44' W 118°13'0 0.0
2015-Aug-15 20:33N 33°44' W 118°13'0 0.0
2015-Aug-15 19:33N 33°44' W 118°13'0 0.1
2015-Aug-15 18:33N 33°44' W 118°13'0 0.0
2015-Aug-15 17:33N 33°44' W 118°13'0 0.1
2015-Aug-15 16:33N 33°44' W 118°13'0 0.0
2015-Aug-15 15:33N 33°44' W 118°13'0 0.1
2015-Aug-15 14:33N 33°44' W 118°13'0 0.0
2015-Aug-15 13:33N 33°44' W 118°13'0 0.0
2015-Aug-15 12:33N 33°44' W 118°13'0 0.0
2015-Aug-15 11:33N 33°44' W 118°13'0 0.0
2015-Aug-15 10:33N 33°44' W 118°13'0 0.0
2015-Aug-15 09:33N 33°44' W 118°13'0 0.0
2015-Aug-15 08:33N 33°44' W 118°13'0 0.1
2015-Aug-15 07:33N 33°44' W 118°13'0 0.1
2015-Aug-15 06:33N 33°44' W 118°13'0 0.0
2015-Aug-15 05:33N 33°44' W 118°13'1 1.4
2015-Aug-15 04:33N 33°45' W 118°13'0 0.4
2015-Aug-15 03:31N 33°45' W 118°13'0 0.0
2015-Aug-15 02:31N 33°45' W 118°13'0 0.0
2015-Aug-15 01:31N 33°45' W 118°13'0 0.0
2015-Aug-15 00:31N 33°45' W 118°13'0 0.0
2015-Aug-14 23:31N 33°45' W 118°13'0 0.0
2015-Aug-14 22:31N 33°45' W 118°13'0 0.0
2015-Aug-14 21:31N 33°45' W 118°13'0 0.0
2015-Aug-14 20:28N 33°45' W 118°13'0 0.0
2015-Aug-14 19:31N 33°45' W 118°13'0 0.0
2015-Aug-14 18:31N 33°45' W 118°13'0 0.0
2015-Aug-14 17:31N 33°45' W 118°13'0 0.0
2015-Aug-14 16:31N 33°45' W 118°13'0 0.0
2015-Aug-14 15:31N 33°45' W 118°13'0 0.0
2015-Aug-14 14:31N 33°45' W 118°13'0 0.0
2015-Aug-14 13:31N 33°45' W 118°13'0 0.0
2015-Aug-14 12:31N 33°45' W 118°13'0 0.0
2015-Aug-14 11:31N 33°45' W 118°13'0 0.0
2015-Aug-14 10:31N 33°45' W 118°13'0 0.0
2015-Aug-14 09:31N 33°45' W 118°13'0 0.0
2015-Aug-14 08:31N 33°45' W 118°13'0 0.0
2015-Aug-14 07:25N 33°45' W 118°13'0 0.0
2015-Aug-14 06:31N 33°45' W 118°13'0 0.0
2015-Aug-14 05:31N 33°45' W 118°13'0 0.0
2015-Aug-14 04:31N 33°45' W 118°13'0 0.0
2015-Aug-14 03:31N 33°45' W 118°13'0 0.0
2015-Aug-14 02:31N 33°45' W 118°13'0 0.0
2015-Aug-14 01:31N 33°45' W 118°13'0 0.0
2015-Aug-14 00:31N 33°45' W 118°13'0 0.0
2015-Aug-13 23:31N 33°45' W 118°13'0 0.0
2015-Aug-13 22:28N 33°45' W 118°13'0 0.0
2015-Aug-13 21:31N 33°45' W 118°13'0 0.0
2015-Aug-13 20:31N 33°45' W 118°13'0 0.0
2015-Aug-13 19:31N 33°45' W 118°13'0 0.2
2015-Aug-13 18:34N 33°45' W 118°13'3 3.2
2015-Aug-13 17:33N 33°44' W 118°09'0 0.1
2015-Aug-13 16:33N 33°44' W 118°10'0 0.1
2015-Aug-13 15:33N 33°44' W 118°10'0 0.1
2015-Aug-13 14:33N 33°44' W 118°09'0 0.1
2015-Aug-13 13:33N 33°44' W 118°09'0 0.1
2015-Aug-13 12:33N 33°44' W 118°09'0 0.0
2015-Aug-13 11:33N 33°44' W 118°09'0 0.0
2015-Aug-13 10:33N 33°44' W 118°09'0 0.0
2015-Aug-13 09:33N 33°44' W 118°09'0 0.0
2015-Aug-13 08:33N 33°44' W 118°09'0 0.0
2015-Aug-13 07:33N 33°44' W 118°09'0 0.1
2015-Aug-13 06:33N 33°44' W 118°09'0 0.0
2015-Aug-13 05:33N 33°44' W 118°09'0 0.1
2015-Aug-13 04:33N 33°44' W 118°09'0 0.0
2015-Aug-13 03:33N 33°44' W 118°09'0 0.1
2015-Aug-13 02:33N 33°44' W 118°09'0 0.0
2015-Aug-13 01:33N 33°44' W 118°09'0 0.0
2015-Aug-13 00:33N 33°44' W 118°09'0 0.0
2015-Aug-12 23:33N 33°44' W 118°09'0 0.0
2015-Aug-12 22:33N 33°44' W 118°09'0 0.0
2015-Aug-12 21:33N 33°44' W 118°09'0 0.0
2015-Aug-12 20:33N 33°44' W 118°09'0 0.1
2015-Aug-12 19:33N 33°44' W 118°09'0 0.1
2015-Aug-12 18:33N 33°44' W 118°09'0 0.1
2015-Aug-12 17:33N 33°44' W 118°09'0 0.1
2015-Aug-12 16:33N 33°44' W 118°09'0 0.0
2015-Aug-12 15:33N 33°44' W 118°09'0 0.1
2015-Aug-12 14:33N 33°44' W 118°09'0 0.0
2015-Aug-12 13:33N 33°44' W 118°09'0 0.0
2015-Aug-12 12:33N 33°44' W 118°09'0 0.1
2015-Aug-12 11:33N 33°44' W 118°09'0 0.0
2015-Aug-12 10:33N 33°44' W 118°09'0 0.1
2015-Aug-12 09:33N 33°44' W 118°09'0 0.0
2015-Aug-12 08:33N 33°44' W 118°09'0 0.0
2015-Aug-12 07:33N 33°44' W 118°09'0 0.0
2015-Aug-12 06:33N 33°44' W 118°09'0 0.1
2015-Aug-12 05:33N 33°44' W 118°09'0 0.0
2015-Aug-12 04:33N 33°44' W 118°09'0 0.0
2015-Aug-12 03:33N 33°44' W 118°09'0 0.0
2015-Aug-12 02:33N 33°44' W 118°09'0 0.0
2015-Aug-12 01:30N 33°44' W 118°09'0 0.0
2015-Aug-12 00:33N 33°44' W 118°09'0 0.0
2015-Aug-11 23:33N 33°44' W 118°09'0 0.0
2015-Aug-11 22:33N 33°44' W 118°09'0 0.0
2015-Aug-11 21:33N 33°44' W 118°09'0 0.1
2015-Aug-11 20:33N 33°44' W 118°09'0 0.0
2015-Aug-11 19:33N 33°44' W 118°09'0 0.1
2015-Aug-11 18:33N 33°44' W 118°09'0 0.1
2015-Aug-11 17:33N 33°44' W 118°10'0 0.1
2015-Aug-11 16:33N 33°44' W 118°09'0 0.1
2015-Aug-11 15:30N 33°44' W 118°09'0 0.1
2015-Aug-11 14:33N 33°44' W 118°09'0 0.0
2015-Aug-11 13:33N 33°44' W 118°09'0 0.1
2015-Aug-11 12:33N 33°44' W 118°09'0 0.0
2015-Aug-11 11:18N 33°44' W 118°09'0 0.1
2015-Aug-11 10:33N 33°44' W 118°09'0 0.0
2015-Aug-11 09:33N 33°44' W 118°09'0 0.0
2015-Aug-11 08:33N 33°44' W 118°09'0 0.0
2015-Aug-11 07:33N 33°44' W 118°09'0 0.0
2015-Aug-11 06:33N 33°44' W 118°09'0 0.0
2015-Aug-11 05:30N 33°44' W 118°09'0 0.0
2015-Aug-11 04:30N 33°44' W 118°09'0 0.0
2015-Aug-11 03:33N 33°44' W 118°09'0 0.0
2015-Aug-11 02:33N 33°44' W 118°09'0 0.0
2015-Aug-11 01:30N 33°44' W 118°09'0 0.0
2015-Aug-11 00:33N 33°44' W 118°09'0 0.0
2015-Aug-10 23:33N 33°44' W 118°09'0 0.0
2015-Aug-10 22:33N 33°44' W 118°09'0 0.0
2015-Aug-10 21:33N 33°44' W 118°09'0 0.0
2015-Aug-10 20:33N 33°44' W 118°09'0 0.0
2015-Aug-10 19:33N 33°44' W 118°09'0 0.1
2015-Aug-10 18:33N 33°44' W 118°09'0 0.2
2015-Aug-10 17:33N 33°44' W 118°10'0 0.1
2015-Aug-10 16:33N 33°44' W 118°10'0 0.1
2015-Aug-10 15:33N 33°44' W 118°09'0 0.1
2015-Aug-10 14:30N 33°44' W 118°09'0 0.1
2015-Aug-10 13:33N 33°44' W 118°09'0 0.0
2015-Aug-10 12:33N 33°44' W 118°09'0 0.0
2015-Aug-10 11:33N 33°44' W 118°09'0 0.0
2015-Aug-10 10:33N 33°44' W 118°09'0 0.0
2015-Aug-10 09:12N 33°44' W 118°09'0 0.0
2015-Aug-10 08:33N 33°44' W 118°09'0 0.0
2015-Aug-10 07:33N 33°44' W 118°09'0 0.0
2015-Aug-10 06:21N 33°44' W 118°09'0 0.0
2015-Aug-10 05:33N 33°44' W 118°09'0 0.0
2015-Aug-10 04:33N 33°44' W 118°09'0 0.0
2015-Aug-10 03:33N 33°44' W 118°09'0 0.0
2015-Aug-10 02:33N 33°44' W 118°09'0 0.0
2015-Aug-10 01:33N 33°44' W 118°09'0 0.0
2015-Aug-10 00:30N 33°44' W 118°09'0 0.0
2015-Aug-09 23:33N 33°44' W 118°09'0 0.4
2015-Aug-09 22:33N 33°44' W 118°10'3 3.2
2015-Aug-09 21:33N 33°45' W 118°13'0 0.0
2015-Aug-09 20:33N 33°45' W 118°13'0 0.0
2015-Aug-09 19:33N 33°45' W 118°13'0 0.0
2015-Aug-09 18:33N 33°45' W 118°13'0 0.0
2015-Aug-09 17:33N 33°45' W 118°13'0 0.0
2015-Aug-09 16:33N 33°45' W 118°13'0 0.0
2015-Aug-09 15:33N 33°45' W 118°13'0 0.0
2015-Aug-09 14:33N 33°45' W 118°13'0 0.0
2015-Aug-09 13:33N 33°45' W 118°13'0 0.0
2015-Aug-09 12:33N 33°45' W 118°13'0 0.0
2015-Aug-09 11:33N 33°45' W 118°13'0 0.0
2015-Aug-09 10:33N 33°45' W 118°13'0 0.0
2015-Aug-09 09:33N 33°45' W 118°13'0 0.0
2015-Aug-09 08:33N 33°45' W 118°13'0 0.0
2015-Aug-09 07:33N 33°45' W 118°13'0 0.0
2015-Aug-09 06:33N 33°45' W 118°13'0 0.0
2015-Aug-09 04:33N 33°45' W 118°13'0 0.0
2015-Aug-09 03:33N 33°45' W 118°13'3 3.2
2015-Aug-09 02:33N 33°43' W 118°11'2 1.7
2015-Aug-09 01:31N 33°42' W 118°09'0 0.0
2015-Aug-09 00:28N 33°42' W 118°09'0 0.0
2015-Aug-08 23:28N 33°42' W 118°09'0 0.0
2015-Aug-08 21:31N 33°42' W 118°09'0 0.1
2015-Aug-08 20:13N 33°42' W 118°09'0 0.1
2015-Aug-08 18:10N 33°42' W 118°09'0 0.0
2015-Aug-08 17:22N 33°42' W 118°09'0 0.1
2015-Aug-08 16:31N 33°42' W 118°09'0 0.0
2015-Aug-08 15:16N 33°42' W 118°09'0 0.1
2015-Aug-08 14:16N 33°42' W 118°09'0 0.1
2015-Aug-08 13:31N 33°42' W 118°09'0 0.0
2015-Aug-08 12:19N 33°42' W 118°09'0 0.0
2015-Aug-08 11:25N 33°42' W 118°09'0 0.0
2015-Aug-08 10:07N 33°42' W 118°09'0 0.0
2015-Aug-08 09:07N 33°42' W 118°09'0 0.0
2015-Aug-08 07:10N 33°42' W 118°09'0 0.1
2015-Aug-08 06:28N 33°42' W 118°09'0 0.1
2015-Aug-08 05:25N 33°42' W 118°09'0 0.0
2015-Aug-08 04:22N 33°42' W 118°09'0 0.1
2015-Aug-08 03:28N 33°42' W 118°09'0 0.0
2015-Aug-08 02:28N 33°42' W 118°09'0 0.1
2015-Aug-08 01:31N 33°42' W 118°09'0 0.0
2015-Aug-08 00:31N 33°42' W 118°09'0 0.0
2015-Aug-07 23:31N 33°42' W 118°09'0 0.0
2015-Aug-07 22:31N 33°42' W 118°09'0 0.1
2015-Aug-07 21:31N 33°42' W 118°09'0 0.0
2015-Aug-07 20:31N 33°42' W 118°09'0 0.2
2015-Aug-07 19:33N 33°42' W 118°09'0 0.1
2015-Aug-07 18:27N 33°42' W 118°09'0 0.0
2015-Aug-07 17:33N 33°42' W 118°09'0 0.0
2015-Aug-07 16:33N 33°42' W 118°09'0 0.1
2015-Aug-07 15:33N 33°42' W 118°09'0 0.1
2015-Aug-07 14:33N 33°42' W 118°09'0 0.0
2015-Aug-07 13:33N 33°42' W 118°09'0 0.0
2015-Aug-07 12:27N 33°42' W 118°09'0 0.0
2015-Aug-07 11:33N 33°42' W 118°09'0 0.0
2015-Aug-07 10:27N 33°42' W 118°09'  

Dump ship's entire track history